createdAt,value
2018-05-31T00:00:34.505Z,0.00
2018-05-31T00:01:34.510Z,0.00
2018-05-31T00:02:34.505Z,0.00
2018-05-31T00:03:34.479Z,0.00
2018-05-31T00:04:34.469Z,0.00
2018-05-31T00:05:34.450Z,0.00
2018-05-31T00:06:34.439Z,0.00
2018-05-31T00:07:34.427Z,0.00
2018-05-31T00:08:34.418Z,0.00
2018-05-31T00:09:34.409Z,0.00
2018-05-31T00:10:34.398Z,0.00
2018-05-31T00:11:34.386Z,0.00
2018-05-31T00:12:34.374Z,0.00
2018-05-31T00:13:34.363Z,0.00
2018-05-31T00:14:34.349Z,0.00
2018-05-31T00:15:34.340Z,0.00
2018-05-31T00:16:34.331Z,0.00
2018-05-31T00:17:34.329Z,0.00
2018-05-31T00:18:34.321Z,0.00
2018-05-31T00:19:34.299Z,0.00
2018-05-31T00:20:34.300Z,0.00
2018-05-31T00:21:34.285Z,0.00
2018-05-31T00:22:34.265Z,0.00
2018-05-31T00:23:34.253Z,0.00
2018-05-31T00:24:34.238Z,0.00
2018-05-31T00:25:34.236Z,0.00
2018-05-31T00:26:34.319Z,0.00
2018-05-31T00:27:34.210Z,0.00
2018-05-31T00:28:34.200Z,0.00
2018-05-31T00:29:34.190Z,0.00
2018-05-31T00:30:34.173Z,0.00
2018-05-31T00:31:34.165Z,0.00
2018-05-31T00:32:34.160Z,0.00
2018-05-31T00:33:34.142Z,0.00
2018-05-31T00:34:34.140Z,0.00
2018-05-31T00:35:34.118Z,0.00
2018-05-31T00:36:34.110Z,0.00
2018-05-31T00:37:34.098Z,0.00
2018-05-31T00:38:34.086Z,0.00
2018-05-31T00:39:34.132Z,0.00
2018-05-31T00:40:34.063Z,0.00
2018-05-31T00:41:34.054Z,0.00
2018-05-31T00:42:34.050Z,0.00
2018-05-31T00:43:34.030Z,0.00
2018-05-31T00:44:34.020Z,0.00
2018-05-31T00:45:34.007Z,0.00
2018-05-31T00:46:33.998Z,0.00
2018-05-31T00:47:33.990Z,0.00
2018-05-31T00:48:33.976Z,0.00
2018-05-31T00:49:33.969Z,0.00
2018-05-31T00:50:33.960Z,0.00
2018-05-31T00:51:33.940Z,0.00
2018-05-31T00:52:33.929Z,0.00
2018-05-31T00:53:33.922Z,0.00
2018-05-31T00:54:33.910Z,0.00
2018-05-31T00:55:33.895Z,0.00
2018-05-31T00:56:33.889Z,0.00
2018-05-31T00:57:33.876Z,0.00
2018-05-31T00:58:33.913Z,0.00
2018-05-31T00:59:33.860Z,0.00
2018-05-31T01:00:33.843Z,0.00
2018-05-31T01:01:33.840Z,0.00
2018-05-31T01:02:33.817Z,0.00
2018-05-31T01:03:33.808Z,0.00
2018-05-31T01:04:33.793Z,0.00
2018-05-31T01:05:33.784Z,0.00
2018-05-31T01:06:33.776Z,0.00
2018-05-31T01:07:33.762Z,0.00
2018-05-31T01:08:33.750Z,0.00
2018-05-31T01:09:33.742Z,0.00
2018-05-31T01:10:33.726Z,0.00
2018-05-31T01:11:33.719Z,0.00
2018-05-31T01:12:33.708Z,0.00
2018-05-31T01:13:33.694Z,0.00
2018-05-31T01:14:33.684Z,0.00
2018-05-31T01:15:33.670Z,0.00
2018-05-31T01:16:33.660Z,0.00
2018-05-31T01:17:33.650Z,0.00
2018-05-31T01:18:33.637Z,0.00
2018-05-31T01:19:33.627Z,0.00
2018-05-31T01:20:33.617Z,0.00
2018-05-31T01:21:33.609Z,0.00
2018-05-31T01:22:33.606Z,0.00
2018-05-31T01:23:33.590Z,0.00
2018-05-31T01:24:33.574Z,0.00
2018-05-31T01:25:33.557Z,0.00
2018-05-31T01:26:33.558Z,0.00
2018-05-31T01:27:33.538Z,0.00
2018-05-31T01:28:33.528Z,0.00
2018-05-31T01:29:33.513Z,0.00
2018-05-31T01:30:33.502Z,0.00
2018-05-31T01:31:33.493Z,0.00
2018-05-31T01:32:33.479Z,0.00
2018-05-31T01:33:33.471Z,0.00
2018-05-31T01:34:33.463Z,0.00
2018-05-31T01:35:33.502Z,0.00
2018-05-31T01:36:33.442Z,0.00
2018-05-31T01:37:33.423Z,0.00
2018-05-31T01:38:33.412Z,0.00
2018-05-31T01:39:33.400Z,0.00
2018-05-31T01:40:33.390Z,0.00
2018-05-31T01:41:33.378Z,0.00
2018-05-31T01:42:33.372Z,0.00
2018-05-31T01:43:33.358Z,0.00
2018-05-31T01:44:33.353Z,0.00
2018-05-31T01:45:33.333Z,0.00
2018-05-31T01:46:33.323Z,0.00
2018-05-31T01:47:33.308Z,0.00
2018-05-31T01:48:33.302Z,0.00
2018-05-31T01:49:33.290Z,0.00
2018-05-31T01:50:33.276Z,0.00
2018-05-31T01:51:33.272Z,0.00
2018-05-31T01:52:33.249Z,0.00
2018-05-31T01:53:33.242Z,0.00
2018-05-31T01:54:33.227Z,0.00
2018-05-31T01:55:33.217Z,0.00
2018-05-31T01:56:33.207Z,0.00
2018-05-31T01:57:33.198Z,0.00
2018-05-31T01:58:33.187Z,0.00
2018-05-31T01:59:33.174Z,0.00
2018-05-31T02:00:33.173Z,0.00
2018-05-31T02:01:33.149Z,0.00
2018-05-31T02:02:33.145Z,0.00
2018-05-31T02:03:33.133Z,0.00
2018-05-31T02:04:33.163Z,0.00
2018-05-31T02:05:33.105Z,0.00
2018-05-31T02:06:33.092Z,0.00
2018-05-31T02:07:33.131Z,0.00
2018-05-31T02:08:33.069Z,0.00
2018-05-31T02:09:33.053Z,0.00
2018-05-31T02:10:33.044Z,0.00
2018-05-31T02:11:33.034Z,0.00
2018-05-31T02:12:33.020Z,0.00
2018-05-31T02:13:33.014Z,0.00
2018-05-31T02:14:33.002Z,0.00
2018-05-31T02:15:32.989Z,0.00
2018-05-31T02:16:32.977Z,0.00
2018-05-31T02:17:32.967Z,0.00
2018-05-31T02:18:32.957Z,0.00
2018-05-31T02:19:32.942Z,0.00
2018-05-31T02:20:32.930Z,0.00
2018-05-31T02:21:32.917Z,0.00
2018-05-31T02:22:32.912Z,0.00
2018-05-31T02:23:32.894Z,0.00
2018-05-31T02:24:32.883Z,0.00
2018-05-31T02:25:32.876Z,0.00
2018-05-31T02:26:32.862Z,0.00
2018-05-31T02:27:32.852Z,0.00
2018-05-31T02:28:32.841Z,0.00
2018-05-31T02:29:32.835Z,0.00
2018-05-31T02:30:32.817Z,0.00
2018-05-31T02:31:32.808Z,0.00
2018-05-31T02:32:32.791Z,0.00
2018-05-31T02:33:32.790Z,0.00
2018-05-31T02:34:32.769Z,0.00
2018-05-31T02:35:32.759Z,0.00
2018-05-31T02:36:32.746Z,0.00
2018-05-31T02:37:32.737Z,0.00
2018-05-31T02:38:32.726Z,0.00
2018-05-31T02:39:32.711Z,0.00
2018-05-31T02:40:32.701Z,0.00
2018-05-31T02:41:32.689Z,0.00
2018-05-31T02:42:32.681Z,0.00
2018-05-31T02:43:32.667Z,0.00
2018-05-31T02:44:32.653Z,0.00
2018-05-31T02:45:32.641Z,0.00
2018-05-31T02:46:32.629Z,0.00
2018-05-31T02:47:32.634Z,0.00
2018-05-31T02:48:32.609Z,0.00
2018-05-31T02:49:32.593Z,4.00
2018-05-31T02:50:32.601Z,0.00
2018-05-31T02:51:32.569Z,0.00
2018-05-31T02:52:32.560Z,0.00
2018-05-31T02:53:32.550Z,0.00
2018-05-31T02:54:32.540Z,4.00
2018-05-31T02:55:32.525Z,0.00
2018-05-31T02:56:32.514Z,4.00
2018-05-31T02:57:32.508Z,0.00
2018-05-31T02:58:32.489Z,4.00
2018-05-31T02:59:32.479Z,4.00
2018-05-31T03:00:32.517Z,4.00
2018-05-31T03:01:32.460Z,4.00
2018-05-31T03:02:32.444Z,4.00
2018-05-31T03:03:32.483Z,0.00
2018-05-31T03:04:32.423Z,4.00
2018-05-31T03:05:32.411Z,8.00
2018-05-31T03:06:32.396Z,4.00
2018-05-31T03:07:32.396Z,4.00
2018-05-31T03:08:32.379Z,8.00
2018-05-31T03:09:32.365Z,4.00
2018-05-31T03:10:32.357Z,8.00
2018-05-31T03:11:32.349Z,8.00
2018-05-31T03:12:32.333Z,8.00
2018-05-31T03:13:32.321Z,12.00
2018-05-31T03:14:32.306Z,12.00
2018-05-31T03:15:32.294Z,12.00
2018-05-31T03:16:32.281Z,12.00
2018-05-31T03:17:32.270Z,12.00
2018-05-31T03:18:32.268Z,12.00
2018-05-31T03:19:32.246Z,16.00
2018-05-31T03:20:32.240Z,16.00
2018-05-31T03:21:32.338Z,20.00
2018-05-31T03:22:32.215Z,16.00
2018-05-31T03:23:32.201Z,20.00
2018-05-31T03:24:32.191Z,20.00
2018-05-31T03:25:32.180Z,20.00
2018-05-31T03:26:32.168Z,24.00
2018-05-31T03:27:32.158Z,28.00
2018-05-31T03:28:32.148Z,24.00
2018-05-31T03:29:32.138Z,28.00
2018-05-31T03:30:32.122Z,28.00
2018-05-31T03:31:32.111Z,32.00
2018-05-31T03:32:32.097Z,36.00
2018-05-31T03:33:32.090Z,36.00
2018-05-31T03:34:32.073Z,40.00
2018-05-31T03:35:32.064Z,40.00
2018-05-31T03:36:32.055Z,44.00
2018-05-31T03:37:32.051Z,44.00
2018-05-31T03:38:32.033Z,44.00
2018-05-31T03:39:32.018Z,48.00
2018-05-31T03:40:32.061Z,52.00
2018-05-31T03:41:31.995Z,52.00
2018-05-31T03:42:31.982Z,56.00
2018-05-31T03:43:31.972Z,60.00
2018-05-31T03:44:31.961Z,60.00
2018-05-31T03:45:31.945Z,64.00
2018-05-31T03:46:31.937Z,68.00
2018-05-31T03:47:31.922Z,68.00
2018-05-31T03:48:31.910Z,68.00
2018-05-31T03:49:31.898Z,72.00
2018-05-31T03:50:31.890Z,72.00
2018-05-31T03:51:31.883Z,76.00
2018-05-31T03:52:31.868Z,80.00
2018-05-31T03:53:31.868Z,76.00
2018-05-31T03:54:31.839Z,80.00
2018-05-31T03:55:31.828Z,84.00
2018-05-31T03:56:31.916Z,84.00
2018-05-31T03:57:31.804Z,84.00
2018-05-31T03:58:31.797Z,84.00
2018-05-31T03:59:31.786Z,88.00
2018-05-31T04:00:31.771Z,88.00
2018-05-31T04:01:31.768Z,92.00
2018-05-31T04:02:31.748Z,92.00
2018-05-31T04:03:31.732Z,92.00
2018-05-31T04:04:31.725Z,96.00
2018-05-31T04:05:31.710Z,100.00
2018-05-31T04:06:31.699Z,104.00
2018-05-31T04:07:31.689Z,108.00
2018-05-31T04:08:31.678Z,116.00
2018-05-31T04:09:31.670Z,116.00
2018-05-31T04:10:31.657Z,120.00
2018-05-31T04:11:31.640Z,124.00
2018-05-31T04:12:31.629Z,132.00
2018-05-31T04:13:31.616Z,136.00
2018-05-31T04:14:31.618Z,136.00
2018-05-31T04:15:31.600Z,140.00
2018-05-31T04:16:31.583Z,144.00
2018-05-31T04:17:31.577Z,152.00
2018-05-31T04:18:31.562Z,156.00
2018-05-31T04:19:31.547Z,164.00
2018-05-31T04:20:31.535Z,164.00
2018-05-31T04:21:31.530Z,172.00
2018-05-31T04:22:31.511Z,172.00
2018-05-31T04:23:31.499Z,176.00
2018-05-31T04:24:31.487Z,180.00
2018-05-31T04:25:31.478Z,184.00
2018-05-31T04:26:31.469Z,192.00
2018-05-31T04:27:31.456Z,196.00
2018-05-31T04:28:31.442Z,196.00
2018-05-31T04:29:31.430Z,200.00
2018-05-31T04:30:31.420Z,208.00
2018-05-31T04:31:31.406Z,212.00
2018-05-31T04:32:31.402Z,216.00
2018-05-31T04:33:31.435Z,220.00
2018-05-31T04:34:31.374Z,232.00
2018-05-31T04:35:31.359Z,240.00
2018-05-31T04:36:31.349Z,248.00
2018-05-31T04:37:31.338Z,260.00
2018-05-31T04:38:31.330Z,260.00
2018-05-31T04:39:31.313Z,260.00
2018-05-31T04:40:31.307Z,260.00
2018-05-31T04:41:31.290Z,260.00
2018-05-31T04:42:31.303Z,256.00
2018-05-31T04:43:31.266Z,256.00
2018-05-31T04:44:31.258Z,252.00
2018-05-31T04:45:31.260Z,252.00
2018-05-31T04:46:31.239Z,252.00
2018-05-31T04:47:31.220Z,252.00
2018-05-31T04:48:31.211Z,252.00
2018-05-31T04:49:31.201Z,252.00
2018-05-31T04:50:31.188Z,252.00
2018-05-31T04:51:31.173Z,256.00
2018-05-31T04:52:31.165Z,252.00
2018-05-31T04:53:31.158Z,256.00
2018-05-31T04:54:31.143Z,260.00
2018-05-31T04:55:31.128Z,268.00
2018-05-31T04:56:31.120Z,272.00
2018-05-31T04:57:31.115Z,280.00
2018-05-31T04:58:31.093Z,284.00
2018-05-31T04:59:31.090Z,292.00
2018-05-31T05:00:31.071Z,296.00
2018-05-31T05:01:31.066Z,296.00
2018-05-31T05:02:31.054Z,304.00
2018-05-31T05:03:31.039Z,308.00
2018-05-31T05:04:31.032Z,312.00
2018-05-31T05:05:31.027Z,324.00
2018-05-31T05:06:31.007Z,336.00
2018-05-31T05:07:31.000Z,356.00
2018-05-31T05:08:30.979Z,376.00
2018-05-31T05:09:30.968Z,396.00
2018-05-31T05:10:31.055Z,408.00
2018-05-31T05:11:30.943Z,420.00
2018-05-31T05:12:30.937Z,424.00
2018-05-31T05:13:30.921Z,440.00
2018-05-31T05:14:30.911Z,440.00
2018-05-31T05:15:30.903Z,444.00
2018-05-31T05:16:30.894Z,444.00
2018-05-31T05:17:30.879Z,448.00
2018-05-31T05:18:30.865Z,444.00
2018-05-31T05:19:30.857Z,440.00
2018-05-31T05:20:30.846Z,440.00
2018-05-31T05:21:30.834Z,440.00
2018-05-31T05:22:30.822Z,432.00
2018-05-31T05:23:30.808Z,428.00
2018-05-31T05:24:30.799Z,424.00
2018-05-31T05:25:30.786Z,424.00
2018-05-31T05:26:30.793Z,420.00
2018-05-31T05:27:30.771Z,420.00
2018-05-31T05:28:30.752Z,416.00
2018-05-31T05:29:30.738Z,408.00
2018-05-31T05:30:30.728Z,400.00
2018-05-31T05:31:30.725Z,396.00
2018-05-31T05:32:30.707Z,396.00
2018-05-31T05:33:30.699Z,392.00
2018-05-31T05:34:30.696Z,400.00
2018-05-31T05:35:30.672Z,400.00
2018-05-31T05:36:30.669Z,416.00
2018-05-31T05:37:30.654Z,420.00
2018-05-31T05:38:30.642Z,436.00
2018-05-31T05:39:30.629Z,452.00
2018-05-31T05:40:30.613Z,456.00
2018-05-31T05:41:30.601Z,460.00
2018-05-31T05:42:30.603Z,472.00
2018-05-31T05:43:30.584Z,472.00
2018-05-31T05:44:30.568Z,476.00
2018-05-31T05:45:30.555Z,488.00
2018-05-31T05:46:30.543Z,500.00
2018-05-31T05:47:30.531Z,524.00
2018-05-31T05:48:30.529Z,548.00
2018-05-31T05:49:30.510Z,548.00
2018-05-31T05:50:30.501Z,552.00
2018-05-31T05:51:30.492Z,560.00
2018-05-31T05:52:30.475Z,572.00
2018-05-31T05:53:30.476Z,596.00
2018-05-31T05:54:30.457Z,608.00
2018-05-31T05:55:30.443Z,616.00
2018-05-31T05:56:30.476Z,624.00
2018-05-31T05:57:30.422Z,624.00
2018-05-31T05:58:30.411Z,620.00
2018-05-31T05:59:30.401Z,620.00
2018-05-31T06:00:30.388Z,620.00
2018-05-31T06:01:30.381Z,616.00
2018-05-31T06:02:30.368Z,612.00
2018-05-31T06:03:30.360Z,612.00
2018-05-31T06:04:30.343Z,612.00
2018-05-31T06:05:30.333Z,612.00
2018-05-31T06:06:30.331Z,612.00
2018-05-31T06:07:30.312Z,616.00
2018-05-31T06:08:30.307Z,616.00
2018-05-31T06:09:30.288Z,616.00
2018-05-31T06:10:30.280Z,612.00
2018-05-31T06:11:30.269Z,612.00
2018-05-31T06:12:30.258Z,604.00
2018-05-31T06:13:30.248Z,600.00
2018-05-31T06:14:30.236Z,588.00
2018-05-31T06:15:30.269Z,592.00
2018-05-31T06:16:30.211Z,620.00
2018-05-31T06:17:30.204Z,636.00
2018-05-31T06:18:30.192Z,648.00
2018-05-31T06:19:30.187Z,668.00
2018-05-31T06:20:30.171Z,676.00
2018-05-31T06:21:30.156Z,680.00
2018-05-31T06:22:30.200Z,680.00
2018-05-31T06:23:30.132Z,696.00
2018-05-31T06:24:30.178Z,700.00
2018-05-31T06:25:30.115Z,700.00
2018-05-31T06:26:30.398Z,700.00
2018-05-31T06:27:30.091Z,716.00
2018-05-31T06:28:30.092Z,724.00
2018-05-31T06:29:30.075Z,724.00
2018-05-31T06:30:30.058Z,736.00
2018-05-31T06:31:30.045Z,740.00
2018-05-31T06:32:30.033Z,724.00
2018-05-31T06:33:30.032Z,708.00
2018-05-31T06:34:30.020Z,720.00
2018-05-31T06:35:30.015Z,756.00
2018-05-31T06:36:29.990Z,748.00
2018-05-31T06:37:29.986Z,724.00
2018-05-31T06:38:30.019Z,748.00
2018-05-31T06:39:29.958Z,756.00
2018-05-31T06:40:29.953Z,744.00
2018-05-31T06:41:29.939Z,760.00
2018-05-31T06:42:29.930Z,776.00
2018-05-31T06:43:29.916Z,804.00
2018-05-31T06:44:29.912Z,816.00
2018-05-31T06:45:29.893Z,776.00
2018-05-31T06:46:29.887Z,816.00
2018-05-31T06:47:29.868Z,852.00
2018-05-31T06:48:29.865Z,868.00
2018-05-31T06:49:29.852Z,876.00
2018-05-31T06:50:29.841Z,884.00
2018-05-31T06:51:29.831Z,900.00
2018-05-31T06:52:29.820Z,908.00
2018-05-31T06:53:29.815Z,908.00
2018-05-31T06:54:29.800Z,916.00
2018-05-31T06:55:29.792Z,896.00
2018-05-31T06:56:29.779Z,880.00
2018-05-31T06:57:29.768Z,892.00
2018-05-31T06:58:29.770Z,872.00
2018-05-31T06:59:29.753Z,916.00
2018-05-31T07:00:29.736Z,924.00
2018-05-31T07:01:29.729Z,928.00
2018-05-31T07:02:29.712Z,908.00
2018-05-31T07:03:29.700Z,936.00
2018-05-31T07:04:29.691Z,920.00
2018-05-31T07:05:29.680Z,932.00
2018-05-31T07:06:29.672Z,948.00
2018-05-31T07:07:29.661Z,972.00
2018-05-31T07:08:29.648Z,964.00
2018-05-31T07:09:29.643Z,1004.00
2018-05-31T07:10:29.625Z,1000.00
2018-05-31T07:11:29.616Z,964.00
2018-05-31T07:12:29.609Z,972.00
2018-05-31T07:13:29.596Z,1008.00
2018-05-31T07:14:29.586Z,1036.00
2018-05-31T07:15:29.579Z,1060.00
2018-05-31T07:16:29.562Z,1076.00
2018-05-31T07:17:29.554Z,1088.00
2018-05-31T07:18:29.571Z,1108.00
2018-05-31T07:19:29.531Z,1124.00
2018-05-31T07:20:29.529Z,1088.00
2018-05-31T07:21:29.511Z,1120.00
2018-05-31T07:22:29.506Z,1140.00
2018-05-31T07:23:29.490Z,1168.00
2018-05-31T07:24:29.481Z,1180.00
2018-05-31T07:25:29.582Z,1196.00
2018-05-31T07:26:29.459Z,1216.00
2018-05-31T07:27:29.450Z,1240.00
2018-05-31T07:28:29.470Z,1264.00
2018-05-31T07:29:29.427Z,1216.00
2018-05-31T07:30:29.419Z,1208.00
2018-05-31T07:31:29.407Z,1272.00
2018-05-31T07:32:29.404Z,1240.00
2018-05-31T07:33:29.396Z,1264.00
2018-05-31T07:34:29.386Z,1312.00
2018-05-31T07:35:29.364Z,1392.00
2018-05-31T07:36:29.361Z,1412.00
2018-05-31T07:37:29.344Z,1408.00
2018-05-31T07:38:29.332Z,1472.00
2018-05-31T07:39:29.335Z,1516.00
2018-05-31T07:40:29.340Z,1536.00
2018-05-31T07:41:29.326Z,1560.00
2018-05-31T07:42:29.295Z,1572.00
2018-05-31T07:43:29.280Z,1564.00
2018-05-31T07:44:29.328Z,1580.00
2018-05-31T07:45:29.274Z,1656.00
2018-05-31T07:46:29.258Z,1668.00
2018-05-31T07:47:29.247Z,1676.00
2018-05-31T07:48:29.237Z,1684.00
2018-05-31T07:49:29.271Z,1680.00
2018-05-31T07:50:29.216Z,1684.00
2018-05-31T07:51:29.210Z,1680.00
2018-05-31T07:52:29.249Z,1684.00
2018-05-31T07:53:29.184Z,1616.00
2018-05-31T07:54:29.177Z,1680.00
2018-05-31T07:55:29.162Z,1720.00
2018-05-31T07:56:29.152Z,1792.00
2018-05-31T07:57:29.143Z,1792.00
2018-05-31T07:58:29.137Z,1756.00
2018-05-31T07:59:29.133Z,1736.00
2018-05-31T08:00:29.111Z,1616.00
2018-05-31T08:01:29.107Z,1584.00
2018-05-31T08:02:29.099Z,1648.00
2018-05-31T08:03:29.089Z,1648.00
2018-05-31T08:04:29.072Z,1616.00
2018-05-31T08:05:29.115Z,1796.00
2018-05-31T08:06:29.056Z,1876.00
2018-05-31T08:07:29.059Z,1896.00
2018-05-31T08:08:29.040Z,1924.00
2018-05-31T08:09:29.034Z,1976.00
2018-05-31T08:10:29.018Z,1952.00
2018-05-31T08:11:29.014Z,2000.00
2018-05-31T08:12:29.000Z,1996.00
2018-05-31T08:13:28.987Z,2028.00
2018-05-31T08:14:28.986Z,2072.00
2018-05-31T08:15:28.969Z,2084.00
2018-05-31T08:16:28.961Z,2108.00
2018-05-31T08:17:28.955Z,2116.00
2018-05-31T08:18:28.942Z,2120.00
2018-05-31T08:19:28.933Z,2084.00
2018-05-31T08:20:28.920Z,2060.00
2018-05-31T08:21:28.965Z,2048.00
2018-05-31T08:22:28.905Z,2104.00
2018-05-31T08:23:28.909Z,2132.00
2018-05-31T08:24:28.892Z,2144.00
2018-05-31T08:25:28.869Z,2164.00
2018-05-31T08:26:28.877Z,2168.00
2018-05-31T08:27:28.860Z,2164.00
2018-05-31T08:28:28.845Z,2140.00
2018-05-31T08:29:28.838Z,2156.00
2018-05-31T08:30:28.825Z,2164.00
2018-05-31T08:31:28.961Z,2196.00
2018-05-31T08:32:28.808Z,2180.00
2018-05-31T08:33:28.806Z,2204.00
2018-05-31T08:34:28.814Z,2160.00
2018-05-31T08:35:28.781Z,2152.00
2018-05-31T08:36:28.770Z,2200.00
2018-05-31T08:37:28.764Z,2220.00
2018-05-31T08:38:28.751Z,2228.00
2018-05-31T08:39:28.745Z,2216.00
2018-05-31T08:40:28.735Z,2224.00
2018-05-31T08:41:28.726Z,2220.00
2018-05-31T08:42:28.719Z,2224.00
2018-05-31T08:43:28.712Z,2212.00
2018-05-31T08:44:28.700Z,2260.00
2018-05-31T08:45:28.687Z,2256.00
2018-05-31T08:46:28.680Z,2272.00
2018-05-31T08:47:28.676Z,2252.00
2018-05-31T08:48:28.671Z,2236.00
2018-05-31T08:49:28.653Z,2256.00
2018-05-31T08:50:28.653Z,2288.00
2018-05-31T08:51:28.634Z,2336.00
2018-05-31T08:52:28.631Z,2360.00
2018-05-31T08:53:28.622Z,2344.00
2018-05-31T08:54:28.609Z,2368.00
2018-05-31T08:55:28.643Z,2384.00
2018-05-31T08:56:28.594Z,2404.00
2018-05-31T08:57:28.580Z,2416.00
2018-05-31T08:58:28.585Z,2404.00
2018-05-31T08:59:28.563Z,2412.00
2018-05-31T09:00:28.573Z,2428.00
2018-05-31T09:01:28.547Z,2456.00
2018-05-31T09:02:28.535Z,2476.00
2018-05-31T09:03:28.531Z,2448.00
2018-05-31T09:04:28.520Z,2460.00
2018-05-31T09:05:28.509Z,2464.00
2018-05-31T09:06:28.498Z,2456.00
2018-05-31T09:07:28.495Z,2516.00
2018-05-31T09:08:28.500Z,2424.00
2018-05-31T09:09:28.477Z,2508.00
2018-05-31T09:10:28.472Z,2512.00
2018-05-31T09:11:28.462Z,2496.00
2018-05-31T09:12:28.448Z,2504.00
2018-05-31T09:13:28.442Z,2540.00
2018-05-31T09:14:28.435Z,2568.00
2018-05-31T09:15:28.420Z,2592.00
2018-05-31T09:16:28.420Z,2608.00
2018-05-31T09:17:28.406Z,2628.00
2018-05-31T09:18:28.412Z,2640.00
2018-05-31T09:19:28.392Z,2680.00
2018-05-31T09:20:28.386Z,2728.00
2018-05-31T09:21:28.368Z,2532.00
2018-05-31T09:22:28.364Z,2500.00
2018-05-31T09:23:28.351Z,2516.00
2018-05-31T09:24:28.404Z,2440.00
2018-05-31T09:25:28.333Z,2504.00
2018-05-31T09:26:28.337Z,2500.00
2018-05-31T09:27:28.321Z,2508.00
2018-05-31T09:28:28.322Z,2584.00
2018-05-31T09:29:28.304Z,2556.00
2018-05-31T09:30:28.294Z,2564.00
2018-05-31T09:31:28.283Z,2528.00
2018-05-31T09:32:28.282Z,2584.00
2018-05-31T09:33:28.269Z,2572.00
2018-05-31T09:34:28.259Z,2576.00
2018-05-31T09:35:28.255Z,2604.00
2018-05-31T09:36:28.237Z,2644.00
2018-05-31T09:37:28.240Z,2700.00
2018-05-31T09:38:28.222Z,2768.00
2018-05-31T09:39:28.214Z,1660.00
2018-05-31T09:40:28.208Z,1088.00
2018-05-31T09:41:28.205Z,1076.00
2018-05-31T09:42:28.190Z,1760.00
2018-05-31T09:43:28.182Z,1800.00
2018-05-31T09:44:28.173Z,2388.00
2018-05-31T09:45:28.164Z,888.00
2018-05-31T09:46:28.169Z,832.00
2018-05-31T09:47:28.153Z,832.00
2018-05-31T09:48:28.152Z,972.00
2018-05-31T09:49:28.131Z,1708.00
2018-05-31T09:50:28.121Z,1424.00
2018-05-31T09:51:28.122Z,1260.00
2018-05-31T09:52:28.104Z,2620.00
2018-05-31T09:53:28.097Z,2660.00
2018-05-31T09:54:28.091Z,1612.00
2018-05-31T09:55:28.083Z,1312.00
2018-05-31T09:56:28.070Z,2604.00
2018-05-31T09:57:28.081Z,1756.00
2018-05-31T09:58:28.066Z,1064.00
2018-05-31T09:59:28.044Z,1232.00
2018-05-31T10:00:28.035Z,2512.00
2018-05-31T10:01:28.027Z,2772.00
2018-05-31T10:02:28.163Z,2804.00
2018-05-31T10:03:28.010Z,2724.00
2018-05-31T10:04:28.002Z,2628.00
2018-05-31T10:05:28.050Z,2616.00
2018-05-31T10:06:27.994Z,2552.00
2018-05-31T10:07:27.978Z,2544.00
2018-05-31T10:08:28.089Z,2432.00
2018-05-31T10:09:27.958Z,2528.00
2018-05-31T10:10:27.954Z,2032.00
2018-05-31T10:11:28.192Z,1144.00
2018-05-31T10:12:27.932Z,1156.00
2018-05-31T10:13:27.936Z,1596.00
2018-05-31T10:14:28.215Z,2676.00
2018-05-31T10:15:27.909Z,2760.00
2018-05-31T10:16:27.917Z,2816.00
2018-05-31T10:17:28.040Z,2828.00
2018-05-31T10:18:27.886Z,2808.00
2018-05-31T10:19:27.875Z,1144.00
2018-05-31T10:20:27.868Z,1272.00
2018-05-31T10:21:27.860Z,1120.00
2018-05-31T10:22:27.851Z,984.00
2018-05-31T10:23:27.877Z,940.00
2018-05-31T10:24:27.833Z,956.00
2018-05-31T10:25:27.824Z,988.00
2018-05-31T10:26:27.826Z,1812.00
2018-05-31T10:27:27.871Z,2136.00
2018-05-31T10:28:27.810Z,1040.00
2018-05-31T10:29:27.803Z,984.00
2018-05-31T10:30:27.787Z,944.00
2018-05-31T10:31:27.780Z,928.00
2018-05-31T10:32:27.766Z,952.00
2018-05-31T10:33:27.773Z,976.00
2018-05-31T10:34:27.753Z,980.00
2018-05-31T10:35:27.741Z,1068.00
2018-05-31T10:36:27.736Z,1480.00
2018-05-31T10:37:27.726Z,2144.00
2018-05-31T10:38:27.720Z,2748.00
2018-05-31T10:39:27.722Z,2768.00
2018-05-31T10:40:27.774Z,1728.00
2018-05-31T10:41:27.690Z,2624.00
2018-05-31T10:42:27.688Z,1356.00
2018-05-31T10:43:27.674Z,2344.00
2018-05-31T10:44:27.670Z,2684.00
2018-05-31T10:45:27.661Z,2828.00
2018-05-31T10:46:27.661Z,1228.00
2018-05-31T10:47:27.641Z,1196.00
2018-05-31T10:48:27.663Z,1288.00
2018-05-31T10:49:27.621Z,3084.00
2018-05-31T10:50:27.618Z,3028.00
2018-05-31T10:51:27.609Z,3008.00
2018-05-31T10:52:27.600Z,3008.00
2018-05-31T10:53:27.610Z,2776.00
2018-05-31T10:54:27.580Z,3080.00
2018-05-31T10:55:27.578Z,3100.00
2018-05-31T10:56:27.563Z,3132.00
2018-05-31T10:57:27.561Z,3184.00
2018-05-31T10:58:27.561Z,3156.00
2018-05-31T10:59:27.539Z,1964.00
2018-05-31T11:00:27.533Z,1500.00
2018-05-31T11:01:27.605Z,1376.00
2018-05-31T11:02:27.621Z,1368.00
2018-05-31T11:03:27.511Z,2912.00
2018-05-31T11:04:27.510Z,2932.00
2018-05-31T11:05:27.503Z,3064.00
2018-05-31T11:06:27.501Z,3128.00
2018-05-31T11:07:27.476Z,3152.00
2018-05-31T11:08:27.469Z,3020.00
2018-05-31T11:09:27.461Z,3016.00
2018-05-31T11:10:27.473Z,2944.00
2018-05-31T11:11:27.452Z,3044.00
2018-05-31T11:12:27.439Z,2904.00
2018-05-31T11:13:27.430Z,3028.00
2018-05-31T11:14:27.436Z,1396.00
2018-05-31T11:15:27.421Z,1368.00
2018-05-31T11:16:27.406Z,1192.00
2018-05-31T11:17:27.458Z,1136.00
2018-05-31T11:18:27.390Z,1076.00
2018-05-31T11:19:27.387Z,1044.00
2018-05-31T11:20:27.374Z,1008.00
2018-05-31T11:21:27.366Z,972.00
2018-05-31T11:22:27.366Z,964.00
2018-05-31T11:23:27.363Z,960.00
2018-05-31T11:24:27.341Z,940.00
2018-05-31T11:25:27.335Z,928.00
2018-05-31T11:26:27.328Z,932.00
2018-05-31T11:27:27.320Z,1024.00
2018-05-31T11:28:27.320Z,1056.00
2018-05-31T11:29:27.301Z,1000.00
2018-05-31T11:30:27.302Z,1000.00
2018-05-31T11:31:27.288Z,956.00
2018-05-31T11:32:27.280Z,928.00
2018-05-31T11:33:27.323Z,924.00
2018-05-31T11:34:27.263Z,924.00
2018-05-31T11:35:27.249Z,912.00
2018-05-31T11:36:27.248Z,884.00
2018-05-31T11:37:27.240Z,872.00
2018-05-31T11:38:27.227Z,848.00
2018-05-31T11:39:27.232Z,848.00
2018-05-31T11:40:27.212Z,856.00
2018-05-31T11:41:27.202Z,884.00
2018-05-31T11:42:27.195Z,896.00
2018-05-31T11:43:27.186Z,896.00
2018-05-31T11:44:27.182Z,908.00
2018-05-31T11:45:27.180Z,924.00
2018-05-31T11:46:27.181Z,932.00
2018-05-31T11:47:27.155Z,1060.00
2018-05-31T11:48:27.151Z,2616.00
2018-05-31T11:49:27.141Z,1100.00
2018-05-31T11:50:27.132Z,2388.00
2018-05-31T11:51:27.129Z,2828.00
2018-05-31T11:52:27.125Z,2972.00
2018-05-31T11:53:27.118Z,3012.00
2018-05-31T11:54:27.099Z,3040.00
2018-05-31T11:55:27.092Z,1492.00
2018-05-31T11:56:27.136Z,3132.00
2018-05-31T11:57:27.081Z,3120.00
2018-05-31T11:58:27.061Z,3200.00
2018-05-31T11:59:27.052Z,3204.00
2018-05-31T12:00:27.051Z,3232.00
2018-05-31T12:01:27.039Z,3296.00
2018-05-31T12:02:27.040Z,3332.00
2018-05-31T12:03:27.021Z,3320.00
2018-05-31T12:04:27.088Z,3300.00
2018-05-31T12:05:27.013Z,3236.00
2018-05-31T12:06:27.045Z,3180.00
2018-05-31T12:07:26.988Z,3196.00
2018-05-31T12:08:27.053Z,3176.00
2018-05-31T12:09:26.982Z,3168.00
2018-05-31T12:10:26.971Z,3160.00
2018-05-31T12:11:26.964Z,3188.00
2018-05-31T12:12:26.951Z,3184.00
2018-05-31T12:13:26.947Z,3144.00
2018-05-31T12:14:26.940Z,3160.00
2018-05-31T12:15:26.931Z,3060.00
2018-05-31T12:16:26.921Z,2940.00
2018-05-31T12:17:27.018Z,3076.00
2018-05-31T12:18:26.911Z,1120.00
2018-05-31T12:19:26.901Z,1916.00
2018-05-31T12:20:26.894Z,3088.00
2018-05-31T12:21:26.889Z,3188.00
2018-05-31T12:22:26.880Z,3076.00
2018-05-31T12:23:26.871Z,1260.00
2018-05-31T12:24:26.860Z,3048.00
2018-05-31T12:25:26.905Z,980.00
2018-05-31T12:26:26.847Z,880.00
2018-05-31T12:27:26.840Z,828.00
2018-05-31T12:28:26.835Z,816.00
2018-05-31T12:29:26.827Z,848.00
2018-05-31T12:30:26.817Z,900.00
2018-05-31T12:31:26.817Z,988.00
2018-05-31T12:32:26.809Z,1036.00
2018-05-31T12:33:26.896Z,1052.00